createdAt,value
2023-04-09T00:01:54.911Z,6.68
2023-04-09T00:04:28.533Z,6.67
2023-04-09T00:17:41.302Z,6.64
2023-04-09T00:20:14.833Z,6.63
2023-04-09T00:22:48.513Z,6.63
2023-04-09T00:25:21.879Z,6.63
2023-04-09T00:27:55.508Z,6.63
2023-04-09T00:44:17.495Z,6.55
2023-04-09T00:46:57.542Z,6.56
2023-04-09T00:49:30.936Z,6.55
2023-04-09T00:52:04.598Z,6.56
2023-04-09T00:54:37.938Z,6.54
2023-04-09T00:57:11.493Z,6.53
2023-04-09T00:59:46.885Z,6.52
2023-04-09T01:09:41.498Z,6.49
2023-04-09T01:12:29.782Z,6.48
2023-04-09T01:15:16.519Z,6.45
2023-04-09T01:18:07.247Z,6.43
2023-04-09T01:20:57.041Z,6.43
2023-04-09T01:23:51.222Z,6.41
2023-04-09T01:37:00.463Z,6.35
2023-04-09T01:39:42.508Z,6.34
2023-04-09T01:42:17.289Z,6.29
2023-04-09T01:44:53.499Z,6.30
2023-04-09T01:47:27.668Z,6.28
2023-04-09T01:50:01.480Z,6.28
2023-04-09T02:03:21.578Z,6.21
2023-04-09T02:06:08.924Z,6.21
2023-04-09T02:08:53.752Z,6.24
2023-04-09T02:11:30.948Z,6.22
2023-04-09T02:14:13.484Z,6.23
2023-04-09T02:16:48.880Z,6.21
2023-04-09T02:19:24.490Z,6.18
2023-04-09T02:29:51.483Z,6.13
2023-04-09T02:32:31.551Z,6.10
2023-04-09T02:35:07.745Z,6.11
2023-04-09T02:37:41.558Z,6.10
2023-04-09T02:40:15.119Z,6.09
2023-04-09T02:42:48.513Z,6.09
2023-04-09T02:45:21.675Z,6.08
2023-04-09T02:58:18.460Z,6.06
2023-04-09T03:00:58.546Z,6.06
2023-04-09T03:03:32.009Z,6.06
2023-04-09T03:06:05.489Z,6.08
2023-04-09T03:08:44.037Z,6.09
2023-04-09T03:25:06.480Z,6.12
2023-04-09T03:27:40.517Z,6.12
2023-04-09T03:30:16.242Z,6.11
2023-04-09T03:32:49.932Z,6.11
2023-04-09T03:35:23.615Z,6.09
2023-04-09T03:38:06.751Z,6.09
2023-04-09T03:51:03.465Z,6.07
2023-04-09T03:53:45.489Z,6.06
2023-04-09T03:56:19.045Z,6.03
2023-04-09T03:58:52.771Z,6.04
2023-04-09T04:01:35.606Z,6.04
2023-04-09T04:04:16.234Z,6.01
2023-04-09T04:17:34.470Z,5.97
2023-04-09T04:20:15.507Z,5.96
2023-04-09T04:23:07.464Z,5.95
2023-04-09T04:26:01.150Z,5.93
2023-04-09T04:28:42.547Z,5.94
2023-04-09T04:45:30.451Z,5.91
2023-04-09T04:48:15.462Z,5.91
2023-04-09T04:50:56.889Z,5.91
2023-04-09T04:53:47.485Z,5.89
2023-04-09T04:56:21.133Z,5.90
2023-04-09T04:59:07.500Z,5.90
2023-04-09T05:12:31.460Z,5.89
2023-04-09T05:15:07.194Z,5.88
2023-04-09T05:17:49.524Z,5.89
2023-04-09T05:20:23.317Z,5.89
2023-04-09T05:23:10.283Z,5.90
2023-04-09T05:37:12.187Z,5.88
2023-04-09T05:39:50.594Z,5.87
2023-04-09T05:42:31.468Z,5.89
2023-04-09T05:45:22.708Z,5.89
2023-04-09T05:48:02.539Z,5.89
2023-04-09T05:50:43.927Z,5.90
2023-04-09T06:03:59.621Z,5.96
2023-04-09T06:06:40.533Z,5.96
2023-04-09T06:09:14.644Z,5.99
2023-04-09T06:11:48.470Z,6.00
2023-04-09T06:14:21.714Z,6.02
2023-04-09T06:16:57.064Z,6.04
2023-04-09T06:19:32.659Z,6.04
2023-04-09T06:32:21.528Z,6.07
2023-04-09T06:35:04.492Z,6.10
2023-04-09T06:37:37.671Z,6.15
2023-04-09T06:40:13.610Z,6.20
2023-04-09T06:42:46.819Z,6.25
2023-04-09T06:45:28.459Z,6.30
2023-04-09T06:58:40.437Z,6.53
2023-04-09T07:01:13.940Z,6.60
2023-04-09T07:03:47.513Z,6.64
2023-04-09T07:06:20.706Z,6.66
2023-04-09T07:08:54.762Z,6.67
2023-04-09T07:25:32.436Z,6.78
2023-04-09T07:28:12.424Z,6.81
2023-04-09T07:30:45.781Z,6.84
2023-04-09T07:33:19.422Z,6.86
2023-04-09T07:35:53.559Z,6.89
2023-04-09T07:38:27.429Z,6.93
2023-04-09T07:51:39.447Z,7.21
2023-04-09T07:54:12.661Z,7.27
2023-04-09T07:56:46.462Z,7.33
2023-04-09T07:59:19.686Z,7.38
2023-04-09T08:01:53.504Z,7.42
2023-04-09T08:04:27.460Z,7.46
2023-04-09T08:17:44.444Z,7.53
2023-04-09T08:20:24.440Z,7.54
2023-04-09T08:22:57.665Z,7.57
2023-04-09T08:25:32.425Z,7.62
2023-04-09T08:28:05.927Z,7.64
2023-04-09T08:30:39.419Z,7.68
2023-04-09T08:33:14.896Z,7.72
2023-04-09T08:45:19.386Z,7.96
2023-04-09T08:48:00.284Z,8.04
2023-04-09T08:50:36.671Z,8.14
2023-04-09T08:53:12.435Z,8.20
2023-04-09T08:55:46.189Z,8.25
2023-04-09T09:11:34.420Z,8.55
2023-04-09T09:14:10.019Z,8.60
2023-04-09T09:16:45.538Z,8.64
2023-04-09T09:19:30.964Z,8.67
2023-04-09T09:22:13.435Z,8.69
2023-04-09T09:24:49.844Z,8.72
2023-04-09T09:38:16.384Z,8.84
2023-04-09T09:40:56.417Z,8.92
2023-04-09T09:43:40.618Z,8.97
2023-04-09T09:46:21.483Z,9.06
2023-04-09T09:48:55.020Z,9.15
2023-04-09T09:51:34.347Z,9.25
2023-04-09T09:54:11.659Z,9.38
2023-04-09T10:07:11.389Z,9.77
2023-04-09T10:09:57.429Z,9.92
2023-04-09T10:12:36.933Z,10.06
2023-04-09T10:15:12.416Z,10.19
2023-04-09T10:17:45.810Z,10.34
2023-04-09T10:20:29.081Z,10.48
2023-04-09T10:33:44.443Z,10.95
2023-04-09T10:36:19.184Z,11.04
2023-04-09T10:38:52.581Z,11.11
2023-04-09T10:41:29.298Z,11.17
2023-04-09T10:44:13.425Z,11.23
2023-04-09T10:58:11.318Z,11.45
2023-04-09T11:00:50.021Z,11.47
2023-04-09T11:03:32.440Z,11.49
2023-04-09T11:06:08.628Z,11.53
2023-04-09T11:08:43.397Z,11.59
2023-04-09T11:11:16.649Z,11.65
2023-04-09T11:13:50.430Z,11.70
2023-04-09T11:27:02.401Z,12.09
2023-04-09T11:29:36.345Z,12.17
2023-04-09T11:32:10.426Z,12.22
2023-04-09T11:34:43.665Z,12.28
2023-04-09T11:37:21.401Z,12.35
2023-04-09T11:39:56.810Z,12.45
2023-04-09T11:52:55.366Z,12.77
2023-04-09T11:55:36.445Z,12.85
2023-04-09T11:58:11.009Z,12.94
2023-04-09T12:00:48.344Z,13.05
2023-04-09T12:03:28.320Z,13.18
2023-04-09T12:19:50.394Z,13.33
2023-04-09T12:22:23.640Z,13.30
2023-04-09T12:24:57.541Z,13.28
2023-04-09T12:27:32.397Z,13.32
2023-04-09T12:30:16.490Z,13.35
2023-04-09T12:32:50.252Z,13.41
2023-04-09T12:35:26.429Z,13.44
2023-04-09T12:45:14.374Z,13.45
2023-04-09T12:47:54.444Z,13.47
2023-04-09T12:50:29.681Z,13.48
2023-04-09T12:53:03.395Z,13.54
2023-04-09T12:55:36.972Z,13.62
2023-04-09T12:58:10.416Z,13.72
2023-04-09T13:00:43.751Z,13.82
2023-04-09T13:13:34.369Z,14.29
2023-04-09T13:16:14.397Z,14.39
2023-04-09T13:18:47.897Z,14.52
2023-04-09T13:21:21.411Z,14.63
2023-04-09T13:23:54.670Z,14.74
2023-04-09T13:40:10.442Z,15.49
2023-04-09T13:42:43.661Z,15.56
2023-04-09T13:47:47.700Z,15.53
2023-04-09T13:50:14.677Z,15.49
2023-04-09T13:52:54.411Z,15.42
2023-04-09T13:55:29.601Z,15.35
2023-04-09T14:05:29.360Z,15.62
2023-04-09T14:08:02.958Z,15.77
2023-04-09T14:10:38.405Z,15.86
2023-04-09T14:13:12.078Z,15.94
2023-04-09T14:15:45.452Z,16.03
2023-04-09T14:18:18.756Z,16.12
2023-04-09T14:20:52.422Z,16.14
2023-04-09T14:34:04.414Z,16.08
2023-04-09T14:36:37.649Z,15.95
2023-04-09T14:39:16.424Z,15.79
2023-04-09T14:41:49.811Z,15.70
2023-04-09T14:44:23.412Z,15.60
2023-04-09T15:01:00.390Z,14.89
2023-04-09T15:03:40.556Z,14.76
2023-04-09T15:06:13.670Z,14.66
2023-04-09T15:08:47.612Z,14.55
2023-04-09T15:11:20.904Z,14.45
2023-04-09T15:13:54.428Z,14.38
2023-04-09T15:27:06.426Z,13.93
2023-04-09T15:29:39.634Z,13.87
2023-04-09T15:32:13.490Z,13.87
2023-04-09T15:34:46.746Z,13.84
2023-04-09T15:37:20.409Z,13.81
2023-04-09T15:39:53.741Z,13.75
2023-04-09T15:52:44.389Z,13.47
2023-04-09T15:55:24.410Z,13.40
2023-04-09T15:58:04.513Z,13.36
2023-04-09T16:00:44.428Z,13.31
2023-04-09T16:03:18.871Z,13.28
2023-04-09T16:05:54.413Z,13.25
2023-04-09T16:19:18.393Z,13.04
2023-04-09T16:21:52.049Z,12.98
2023-04-09T16:24:25.418Z,12.96
2023-04-09T16:26:58.733Z,12.92
2023-04-09T16:29:32.417Z,12.90
2023-04-09T16:32:05.847Z,12.84
2023-04-09T16:34:41.465Z,12.81
2023-04-09T16:48:01.441Z,12.70
2023-04-09T16:50:36.941Z,12.68
2023-04-09T16:53:10.402Z,12.66
2023-04-09T16:55:43.623Z,12.63
2023-04-09T16:58:17.412Z,12.62
2023-04-09T17:00:51.956Z,12.57
2023-04-09T17:13:42.365Z,12.48
2023-04-09T17:16:23.379Z,12.47
2023-04-09T17:18:56.698Z,12.45
2023-04-09T17:21:30.393Z,12.43
2023-04-09T17:24:04.335Z,12.39
2023-04-09T17:26:37.377Z,12.38
2023-04-09T17:39:56.460Z,12.29
2023-04-09T17:42:29.752Z,12.28
2023-04-09T17:45:03.419Z,12.28
2023-04-09T17:47:36.943Z,12.26
2023-04-09T17:50:11.385Z,12.25
2023-04-09T17:52:44.790Z,12.22
2023-04-09T17:55:20.406Z,12.18
2023-04-09T18:08:30.413Z,12.21
2023-04-09T18:11:12.763Z,12.20
2023-04-09T18:13:53.417Z,12.22
2023-04-09T18:16:27.169Z,12.23
2023-04-09T18:19:00.442Z,12.23
2023-04-09T18:21:34.042Z,12.24
2023-04-09T18:34:24.365Z,12.19
2023-04-09T18:37:04.388Z,12.17
2023-04-09T18:39:37.631Z,12.16
2023-04-09T18:42:11.431Z,12.13
2023-04-09T18:44:44.796Z,12.13
2023-04-09T19:01:00.374Z,12.04
2023-04-09T19:03:33.862Z,12.02
2023-04-09T19:06:07.386Z,12.00
2023-04-09T19:08:40.760Z,11.98
2023-04-09T19:11:14.400Z,11.99
2023-04-09T19:13:47.632Z,11.98
2023-04-09T19:16:24.490Z,11.96
2023-04-09T19:26:30.365Z,11.92
2023-04-09T19:29:10.408Z,11.90
2023-04-09T19:31:45.641Z,11.90
2023-04-09T19:34:19.405Z,11.89
2023-04-09T19:36:52.757Z,11.87
2023-04-09T19:39:26.388Z,11.85
2023-04-09T19:53:19.386Z,11.83
2023-04-09T19:55:52.638Z,11.82
2023-04-09T19:58:26.400Z,11.81
2023-04-09T20:00:59.775Z,11.81
2023-04-09T20:03:33.495Z,11.81
2023-04-09T20:06:07.838Z,11.76
2023-04-09T20:22:23.388Z,11.64
2023-04-09T20:24:56.632Z,11.63
2023-04-09T20:27:31.372Z,11.61
2023-04-09T20:30:07.049Z,11.61
2023-04-09T20:32:42.441Z,11.58
2023-04-09T20:35:15.845Z,11.57
2023-04-09T20:48:06.496Z,11.59
2023-04-09T20:50:46.449Z,11.60
2023-04-09T20:53:19.641Z,11.60
2023-04-09T20:55:53.382Z,11.60
2023-04-09T20:58:26.639Z,11.61
2023-04-09T21:01:09.492Z,11.62
2023-04-09T21:14:21.358Z,11.54
2023-04-09T21:16:54.699Z,11.50
2023-04-09T21:19:28.365Z,11.43
2023-04-09T21:22:02.299Z,11.40
2023-04-09T21:24:35.401Z,11.38
2023-04-09T21:41:12.362Z,11.28
2023-04-09T21:43:45.575Z,11.25
2023-04-09T21:46:19.406Z,11.21
2023-04-09T21:48:53.045Z,11.19
2023-04-09T21:51:26.408Z,11.18
2023-04-09T21:54:03.842Z,11.16
2023-04-09T22:07:01.352Z,11.05
2023-04-09T22:09:41.401Z,11.03
2023-04-09T22:12:16.590Z,11.02
2023-04-09T22:14:50.424Z,11.01
2023-04-09T22:17:23.688Z,10.97
2023-04-09T22:19:57.387Z,10.95
2023-04-09T22:33:48.405Z,10.86
2023-04-09T22:36:21.749Z,10.85
2023-04-09T22:38:56.121Z,10.86
2023-04-09T22:41:29.775Z,10.85
2023-04-09T22:44:03.372Z,10.84
2023-04-09T22:46:36.776Z,10.84
2023-04-09T22:49:12.387Z,10.83
2023-04-09T22:51:45.610Z,10.82
2023-04-09T23:01:09.388Z,10.79
2023-04-09T23:03:42.700Z,10.77
2023-04-09T23:06:18.406Z,10.77
2023-04-09T23:08:51.792Z,10.77
2023-04-09T23:11:25.422Z,10.74
2023-04-09T23:13:58.686Z,10.74
2023-04-09T23:16:32.503Z,10.74
2023-04-09T23:29:44.411Z,10.74
2023-04-09T23:32:17.645Z,10.75
2023-04-09T23:34:51.360Z,10.76
2023-04-09T23:37:24.762Z,10.78
2023-04-09T23:39:58.536Z,10.77
2023-04-09T23:53:53.539Z,10.70
2023-04-09T23:56:28.849Z,10.67
2023-04-09T23:59:03.243Z,10.65
